sensor_id;sensor_type;location;lat;lon;timestamp;P1;durP1;ratioP1;P2;durP2;ratioP2
15669;SDS011;18524;45.190;5.732;2023-04-24T00:02:47;2.00;;;1.20;;
15669;SDS011;18524;45.190;5.732;2023-04-24T00:07:38;1.00;;;0.90;;
15669;SDS011;18524;45.190;5.732;2023-04-24T00:12:28;1.50;;;0.80;;
15669;SDS011;18524;45.190;5.732;2023-04-24T00:17:18;1.37;;;0.90;;
15669;SDS011;18524;45.190;5.732;2023-04-24T00:22:12;2.13;;;1.03;;
15669;SDS011;18524;45.190;5.732;2023-04-24T00:27:03;1.10;;;0.87;;
15669;SDS011;18524;45.190;5.732;2023-04-24T00:31:53;1.30;;;0.90;;
15669;SDS011;18524;45.190;5.732;2023-04-24T00:36:44;1.57;;;1.00;;
15669;SDS011;18524;45.190;5.732;2023-04-24T00:41:34;1.30;;;0.80;;
15669;SDS011;18524;45.190;5.732;2023-04-24T00:46:25;1.10;;;0.80;;
15669;SDS011;18524;45.190;5.732;2023-04-24T00:51:15;1.53;;;1.00;;
15669;SDS011;18524;45.190;5.732;2023-04-24T00:56:06;1.20;;;0.90;;
15669;SDS011;18524;45.190;5.732;2023-04-24T01:00:56;3.23;;;1.10;;
15669;SDS011;18524;45.190;5.732;2023-04-24T01:05:47;2.80;;;1.07;;
15669;SDS011;18524;45.190;5.732;2023-04-24T01:10:38;1.33;;;1.10;;
15669;SDS011;18524;45.190;5.732;2023-04-24T01:15:31;1.50;;;0.90;;
15669;SDS011;18524;45.190;5.732;2023-04-24T01:20:21;1.03;;;0.90;;
15669;SDS011;18524;45.190;5.732;2023-04-24T01:25:13;1.10;;;0.67;;
15669;SDS011;18524;45.190;5.732;2023-04-24T01:30:03;1.23;;;0.73;;
15669;SDS011;18524;45.190;5.732;2023-04-24T01:34:55;1.43;;;0.80;;
15669;SDS011;18524;45.190;5.732;2023-04-24T01:39:45;0.80;;;0.67;;
15669;SDS011;18524;45.190;5.732;2023-04-24T01:44:36;0.87;;;0.80;;
15669;SDS011;18524;45.190;5.732;2023-04-24T01:49:26;1.17;;;0.80;;
15669;SDS011;18524;45.190;5.732;2023-04-24T01:54:17;2.60;;;0.70;;
15669;SDS011;18524;45.190;5.732;2023-04-24T01:59:08;1.53;;;0.70;;
15669;SDS011;18524;45.190;5.732;2023-04-24T02:04:00;2.43;;;0.80;;
15669;SDS011;18524;45.190;5.732;2023-04-24T02:08:50;3.00;;;0.70;;
15669;SDS011;18524;45.190;5.732;2023-04-24T02:13:41;2.63;;;0.77;;
15669;SDS011;18524;45.190;5.732;2023-04-24T02:18:31;1.50;;;0.60;;
15669;SDS011;18524;45.190;5.732;2023-04-24T02:23:21;1.13;;;0.70;;
15669;SDS011;18524;45.190;5.732;2023-04-24T02:28:12;1.80;;;0.60;;
15669;SDS011;18524;45.190;5.732;2023-04-24T02:33:02;2.13;;;0.73;;
15669;SDS011;18524;45.190;5.732;2023-04-24T02:37:53;1.50;;;0.53;;
15669;SDS011;18524;45.190;5.732;2023-04-24T02:42:43;0.90;;;0.77;;
15669;SDS011;18524;45.190;5.732;2023-04-24T02:47:34;1.73;;;0.73;;
15669;SDS011;18524;45.190;5.732;2023-04-24T02:52:25;2.40;;;0.80;;
15669;SDS011;18524;45.190;5.732;2023-04-24T02:57:15;2.27;;;0.73;;
15669;SDS011;18524;45.190;5.732;2023-04-24T03:02:05;0.80;;;0.60;;
15669;SDS011;18524;45.190;5.732;2023-04-24T03:06:56;2.13;;;0.60;;
15669;SDS011;18524;45.190;5.732;2023-04-24T03:11:46;1.00;;;0.43;;
15669;SDS011;18524;45.190;5.732;2023-04-24T03:16:38;0.67;;;0.50;;
15669;SDS011;18524;45.190;5.732;2023-04-24T03:21:28;0.50;;;0.50;;
15669;SDS011;18524;45.190;5.732;2023-04-24T03:26:19;1.53;;;0.60;;
15669;SDS011;18524;45.190;5.732;2023-04-24T03:31:09;1.07;;;0.70;;
15669;SDS011;18524;45.190;5.732;2023-04-24T03:36:00;0.60;;;0.50;;
15669;SDS011;18524;45.190;5.732;2023-04-24T03:40:50;1.53;;;0.80;;
15669;SDS011;18524;45.190;5.732;2023-04-24T03:45:41;3.30;;;0.77;;
15669;SDS011;18524;45.190;5.732;2023-04-24T03:50:31;0.80;;;0.70;;
15669;SDS011;18524;45.190;5.732;2023-04-24T03:55:21;1.00;;;0.80;;
15669;SDS011;18524;45.190;5.732;2023-04-24T04:00:12;2.43;;;1.00;;
15669;SDS011;18524;45.190;5.732;2023-04-24T04:05:02;0.93;;;0.80;;
15669;SDS011;18524;45.190;5.732;2023-04-24T04:09:53;2.60;;;0.80;;
15669;SDS011;18524;45.190;5.732;2023-04-24T04:14:43;1.80;;;1.00;;
15669;SDS011;18524;45.190;5.732;2023-04-24T04:19:33;1.50;;;0.97;;
15669;SDS011;18524;45.190;5.732;2023-04-24T04:24:24;1.67;;;0.80;;
15669;SDS011;18524;45.190;5.732;2023-04-24T04:29:16;1.33;;;0.97;;
15669;SDS011;18524;45.190;5.732;2023-04-24T04:34:08;2.47;;;1.17;;
15669;SDS011;18524;45.190;5.732;2023-04-24T04:38:59;2.20;;;1.33;;
15669;SDS011;18524;45.190;5.732;2023-04-24T04:43:49;2.33;;;1.00;;
15669;SDS011;18524;45.190;5.732;2023-04-24T04:48:39;1.70;;;1.30;;
15669;SDS011;18524;45.190;5.732;2023-04-24T04:53:30;4.27;;;2.80;;
15669;SDS011;18524;45.190;5.732;2023-04-24T04:58:20;9.67;;;7.30;;
15669;SDS011;18524;45.190;5.732;2023-04-24T05:03:11;14.97;;;11.67;;
15669;SDS011;18524;45.190;5.732;2023-04-24T05:08:01;15.37;;;11.93;;
15669;SDS011;18524;45.190;5.732;2023-04-24T05:12:51;12.97;;;10.70;;
15669;SDS011;18524;45.190;5.732;2023-04-24T05:17:42;12.97;;;10.13;;
15669;SDS011;18524;45.190;5.732;2023-04-24T05:22:32;13.37;;;10.83;;
15669;SDS011;18524;45.190;5.732;2023-04-24T05:27:23;5.47;;;4.60;;
15669;SDS011;18524;45.190;5.732;2023-04-24T05:32:14;3.40;;;3.10;;
15669;SDS011;18524;45.190;5.732;2023-04-24T05:37:04;3.30;;;2.40;;
15669;SDS011;18524;45.190;5.732;2023-04-24T05:41:58;3.87;;;2.40;;
15669;SDS011;18524;45.190;5.732;2023-04-24T05:46:48;3.00;;;2.10;;
15669;SDS011;18524;45.190;5.732;2023-04-24T05:51:39;2.40;;;1.90;;
15669;SDS011;18524;45.190;5.732;2023-04-24T05:56:29;2.70;;;2.37;;
15669;SDS011;18524;45.190;5.732;2023-04-24T06:01:20;2.50;;;2.30;;
15669;SDS011;18524;45.190;5.732;2023-04-24T06:06:11;3.53;;;2.60;;
15669;SDS011;18524;45.190;5.732;2023-04-24T06:11:01;2.87;;;2.30;;
15669;SDS011;18524;45.190;5.732;2023-04-24T06:15:52;2.60;;;2.40;;
15669;SDS011;18524;45.190;5.732;2023-04-24T06:20:43;4.80;;;2.13;;
15669;SDS011;18524;45.190;5.732;2023-04-24T06:25:34;1.90;;;1.70;;
15669;SDS011;18524;45.190;5.732;2023-04-24T06:30:25;2.20;;;1.73;;
15669;SDS011;18524;45.190;5.732;2023-04-24T06:35:15;2.53;;;1.97;;
15669;SDS011;18524;45.190;5.732;2023-04-24T06:40:06;3.87;;;1.80;;
15669;SDS011;18524;45.190;5.732;2023-04-24T06:44:57;3.03;;;2.00;;
15669;SDS011;18524;45.190;5.732;2023-04-24T06:49:47;3.83;;;1.80;;
15669;SDS011;18524;45.190;5.732;2023-04-24T06:54:38;5.53;;;2.00;;
15669;SDS011;18524;45.190;5.732;2023-04-24T06:59:28;3.10;;;2.00;;
15669;SDS011;18524;45.190;5.732;2023-04-24T07:04:19;3.53;;;2.03;;
15669;SDS011;18524;45.190;5.732;2023-04-24T07:09:09;5.87;;;3.10;;
15669;SDS011;18524;45.190;5.732;2023-04-24T07:14:00;7.17;;;3.83;;
15669;SDS011;18524;45.190;5.732;2023-04-24T07:18:50;2.73;;;2.43;;
15669;SDS011;18524;45.190;5.732;2023-04-24T07:23:42;11.93;;;8.70;;
15669;SDS011;18524;45.190;5.732;2023-04-24T07:28:32;3.47;;;3.00;;
15669;SDS011;18524;45.190;5.732;2023-04-24T07:33:23;4.77;;;2.90;;
15669;SDS011;18524;45.190;5.732;2023-04-24T07:38:13;4.03;;;2.87;;
15669;SDS011;18524;45.190;5.732;2023-04-24T07:43:04;7.20;;;3.33;;
15669;SDS011;18524;45.190;5.732;2023-04-24T07:47:54;8.07;;;2.93;;
15669;SDS011;18524;45.190;5.732;2023-04-24T07:52:45;4.50;;;3.70;;
15669;SDS011;18524;45.190;5.732;2023-04-24T07:57:35;4.60;;;4.00;;
15669;SDS011;18524;45.190;5.732;2023-04-24T08:02:26;6.13;;;4.37;;
15669;SDS011;18524;45.190;5.732;2023-04-24T08:07:16;4.97;;;4.37;;
15669;SDS011;18524;45.190;5.732;2023-04-24T08:12:07;3.30;;;3.00;;
15669;SDS011;18524;45.190;5.732;2023-04-24T08:16:57;2.90;;;1.50;;
15669;SDS011;18524;45.190;5.732;2023-04-24T08:21:50;1.50;;;1.10;;
15669;SDS011;18524;45.190;5.732;2023-04-24T08:26:40;1.90;;;1.03;;
15669;SDS011;18524;45.190;5.732;2023-04-24T08:31:31;1.00;;;0.80;;
15669;SDS011;18524;45.190;5.732;2023-04-24T08:36:21;2.30;;;2.10;;
15669;SDS011;18524;45.190;5.732;2023-04-24T08:41:11;3.30;;;2.27;;
15669;SDS011;18524;45.190;5.732;2023-04-24T08:46:05;1.63;;;1.30;;
15669;SDS011;18524;45.190;5.732;2023-04-24T08:50:56;3.00;;;2.17;;
15669;SDS011;18524;45.190;5.732;2023-04-24T08:55:48;6.27;;;5.23;;
15669;SDS011;18524;45.190;5.732;2023-04-24T09:00:39;11.30;;;10.27;;
15669;SDS011;18524;45.190;5.732;2023-04-24T09:05:29;5.27;;;4.77;;
15669;SDS011;18524;45.190;5.732;2023-04-24T09:10:24;7.90;;;7.10;;
15669;SDS011;18524;45.190;5.732;2023-04-24T09:15:15;4.80;;;4.40;;
15669;SDS011;18524;45.190;5.732;2023-04-24T09:20:05;2.60;;;2.40;;
15669;SDS011;18524;45.190;5.732;2023-04-24T09:25:03;4.10;;;3.80;;
15669;SDS011;18524;45.190;5.732;2023-04-24T09:29:56;2.80;;;2.60;;
15669;SDS011;18524;45.190;5.732;2023-04-24T09:34:47;3.27;;;2.07;;
15669;SDS011;18524;45.190;5.732;2023-04-24T09:39:38;4.47;;;1.70;;
15669;SDS011;18524;45.190;5.732;2023-04-24T09:44:29;1.23;;;0.70;;
15669;SDS011;18524;45.190;5.732;2023-04-24T09:49:22;2.47;;;0.60;;
15669;SDS011;18524;45.190;5.732;2023-04-24T09:54:15;2.03;;;0.90;;
15669;SDS011;18524;45.190;5.732;2023-04-24T09:59:07;1.23;;;1.00;;
15669;SDS011;18524;45.190;5.732;2023-04-24T10:03:57;2.27;;;0.90;;
15669;SDS011;18524;45.190;5.732;2023-04-24T10:08:48;1.10;;;0.70;;
15669;SDS011;18524;45.190;5.732;2023-04-24T10:13:40;1.77;;;0.80;;
15669;SDS011;18524;45.190;5.732;2023-04-24T10:18:31;5.33;;;4.37;;
15669;SDS011;18524;45.190;5.732;2023-04-24T10:23:22;1.47;;;1.20;;
15669;SDS011;18524;45.190;5.732;2023-04-24T10:28:15;1.50;;;1.40;;
15669;SDS011;18524;45.190;5.732;2023-04-24T10:33:06;1.77;;;1.13;;
15669;SDS011;18524;45.190;5.732;2023-04-24T10:37:59;1.73;;;1.10;;
15669;SDS011;18524;45.190;5.732;2023-04-24T10:42:55;1.13;;;1.03;;
15669;SDS011;18524;45.190;5.732;2023-04-24T10:47:53;1.67;;;0.83;;
15669;SDS011;18524;45.190;5.732;2023-04-24T10:52:51;1.70;;;1.03;;
15669;SDS011;18524;45.190;5.732;2023-04-24T11:02:53;2.00;;;0.90;;
15669;SDS011;18524;45.190;5.732;2023-04-24T11:13:04;1.40;;;1.20;;
15669;SDS011;18524;45.190;5.732;2023-04-24T11:17:54;1.30;;;0.90;;
15669;SDS011;18524;45.190;5.732;2023-04-24T11:22:45;1.40;;;0.83;;
15669;SDS011;18524;45.190;5.732;2023-04-24T11:27:40;1.40;;;0.93;;
15669;SDS011;18524;45.190;5.732;2023-04-24T11:37:26;1.63;;;0.70;;
15669;SDS011;18524;45.190;5.732;2023-04-24T11:42:18;1.07;;;0.70;;
15669;SDS011;18524;45.190;5.732;2023-04-24T11:47:09;1.40;;;0.67;;
15669;SDS011;18524;45.190;5.732;2023-04-24T11:52:00;1.00;;;0.53;;
15669;SDS011;18524;45.190;5.732;2023-04-24T11:56:51;1.00;;;0.63;;
15669;SDS011;18524;45.190;5.732;2023-04-24T12:01:45;0.60;;;0.50;;
15669;SDS011;18524;45.190;5.732;2023-04-24T12:06:36;1.87;;;0.77;;
15669;SDS011;18524;45.190;5.732;2023-04-24T12:11:26;2.03;;;0.70;;
15669;SDS011;18524;45.190;5.732;2023-04-24T12:16:16;2.00;;;1.10;;
15669;SDS011;18524;45.190;5.732;2023-04-24T12:21:17;1.00;;;0.90;;
15669;SDS011;18524;45.190;5.732;2023-04-24T12:26:12;1.20;;;0.70;;
15669;SDS011;18524;45.190;5.732;2023-04-24T12:31:06;1.10;;;0.60;;
15669;SDS011;18524;45.190;5.732;2023-04-24T12:35:57;0.80;;;0.60;;
15669;SDS011;18524;45.190;5.732;2023-04-24T12:40:48;1.23;;;0.80;;
15669;SDS011;18524;45.190;5.732;2023-04-24T12:45:54;1.10;;;0.80;;
15669;SDS011;18524;45.190;5.732;2023-04-24T12:50:45;2.10;;;0.80;;
15669;SDS011;18524;45.190;5.732;2023-04-24T12:55:35;1.60;;;0.77;;
15669;SDS011;18524;45.190;5.732;2023-04-24T13:00:26;1.47;;;0.90;;
15669;SDS011;18524;45.190;5.732;2023-04-24T13:05:16;2.13;;;0.83;;
15669;SDS011;18524;45.190;5.732;2023-04-24T13:10:07;1.60;;;0.70;;
15669;SDS011;18524;45.190;5.732;2023-04-24T13:14:58;2.50;;;0.80;;
15669;SDS011;18524;45.190;5.732;2023-04-24T13:19:49;1.07;;;0.90;;
15669;SDS011;18524;45.190;5.732;2023-04-24T13:24:41;1.53;;;0.70;;
15669;SDS011;18524;45.190;5.732;2023-04-24T13:29:32;1.23;;;0.80;;
15669;SDS011;18524;45.190;5.732;2023-04-24T13:34:22;2.53;;;0.90;;
15669;SDS011;18524;45.190;5.732;2023-04-24T13:39:14;2.20;;;1.00;;
15669;SDS011;18524;45.190;5.732;2023-04-24T13:44:05;3.23;;;1.10;;
15669;SDS011;18524;45.190;5.732;2023-04-24T13:48:56;0.80;;;0.80;;
15669;SDS011;18524;45.190;5.732;2023-04-24T13:53:47;1.60;;;0.90;;
15669;SDS011;18524;45.190;5.732;2023-04-24T13:58:37;1.70;;;0.90;;
15669;SDS011;18524;45.190;5.732;2023-04-24T14:03:28;1.77;;;0.90;;
15669;SDS011;18524;45.190;5.732;2023-04-24T14:08:18;1.53;;;0.90;;
15669;SDS011;18524;45.190;5.732;2023-04-24T14:13:09;1.83;;;1.10;;
15669;SDS011;18524;45.190;5.732;2023-04-24T14:17:59;2.30;;;1.00;;
15669;SDS011;18524;45.190;5.732;2023-04-24T14:22:50;1.53;;;0.83;;
15669;SDS011;18524;45.190;5.732;2023-04-24T14:27:40;1.03;;;0.93;;
15669;SDS011;18524;45.190;5.732;2023-04-24T14:32:31;1.47;;;1.00;;
15669;SDS011;18524;45.190;5.732;2023-04-24T14:37:21;1.37;;;1.00;;
15669;SDS011;18524;45.190;5.732;2023-04-24T14:42:11;1.53;;;1.13;;
15669;SDS011;18524;45.190;5.732;2023-04-24T14:47:02;1.83;;;0.90;;
15669;SDS011;18524;45.190;5.732;2023-04-24T14:51:52;2.73;;;1.50;;
15669;SDS011;18524;45.190;5.732;2023-04-24T14:56:42;1.87;;;1.00;;
15669;SDS011;18524;45.190;5.732;2023-04-24T15:01:34;1.83;;;1.10;;
15669;SDS011;18524;45.190;5.732;2023-04-24T15:06:24;3.90;;;1.23;;
15669;SDS011;18524;45.190;5.732;2023-04-24T15:11:15;1.87;;;0.93;;
15669;SDS011;18524;45.190;5.732;2023-04-24T15:16:05;1.00;;;0.90;;
15669;SDS011;18524;45.190;5.732;2023-04-24T15:20:56;2.40;;;1.20;;
15669;SDS011;18524;45.190;5.732;2023-04-24T15:25:46;4.20;;;1.10;;
15669;SDS011;18524;45.190;5.732;2023-04-24T15:30:37;2.80;;;1.10;;
15669;SDS011;18524;45.190;5.732;2023-04-24T15:35:27;3.83;;;1.07;;
15669;SDS011;18524;45.190;5.732;2023-04-24T15:40:18;3.17;;;0.97;;
15669;SDS011;18524;45.190;5.732;2023-04-24T15:45:08;1.20;;;0.80;;
15669;SDS011;18524;45.190;5.732;2023-04-24T15:49:59;2.23;;;0.97;;
15669;SDS011;18524;45.190;5.732;2023-04-24T15:54:50;3.97;;;1.20;;
15669;SDS011;18524;45.190;5.732;2023-04-24T15:59:40;3.30;;;1.20;;
15669;SDS011;18524;45.190;5.732;2023-04-24T16:04:31;1.47;;;0.90;;
15669;SDS011;18524;45.190;5.732;2023-04-24T16:09:24;2.57;;;1.17;;
15669;SDS011;18524;45.190;5.732;2023-04-24T16:14:15;3.10;;;1.60;;
15669;SDS011;18524;45.190;5.732;2023-04-24T16:19:05;2.20;;;1.00;;
15669;SDS011;18524;45.190;5.732;2023-04-24T16:23:57;2.90;;;1.23;;
15669;SDS011;18524;45.190;5.732;2023-04-24T16:28:47;1.73;;;1.10;;
15669;SDS011;18524;45.190;5.732;2023-04-24T16:33:37;1.30;;;0.83;;
15669;SDS011;18524;45.190;5.732;2023-04-24T16:38:28;2.53;;;1.20;;
15669;SDS011;18524;45.190;5.732;2023-04-24T16:43:19;3.27;;;1.60;;
15669;SDS011;18524;45.190;5.732;2023-04-24T16:48:09;2.93;;;1.30;;
15669;SDS011;18524;45.190;5.732;2023-04-24T16:53:00;2.27;;;1.23;;
15669;SDS011;18524;45.190;5.732;2023-04-24T16:57:50;2.03;;;1.00;;
15669;SDS011;18524;45.190;5.732;2023-04-24T17:02:41;1.10;;;1.00;;
15669;SDS011;18524;45.190;5.732;2023-04-24T17:07:31;3.47;;;1.00;;
15669;SDS011;18524;45.190;5.732;2023-04-24T17:12:22;1.90;;;1.10;;
15669;SDS011;18524;45.190;5.732;2023-04-24T17:17:12;2.13;;;1.07;;
15669;SDS011;18524;45.190;5.732;2023-04-24T17:22:03;1.87;;;1.00;;
15669;SDS011;18524;45.190;5.732;2023-04-24T17:26:54;2.30;;;1.77;;
15669;SDS011;18524;45.190;5.732;2023-04-24T17:31:45;1.67;;;1.17;;
15669;SDS011;18524;45.190;5.732;2023-04-24T17:36:35;2.00;;;1.30;;
15669;SDS011;18524;45.190;5.732;2023-04-24T17:41:27;2.90;;;1.10;;
15669;SDS011;18524;45.190;5.732;2023-04-24T17:46:17;2.10;;;1.23;;
15669;SDS011;18524;45.190;5.732;2023-04-24T17:51:08;2.13;;;1.00;;
15669;SDS011;18524;45.190;5.732;2023-04-24T17:55:59;2.17;;;1.70;;
15669;SDS011;18524;45.190;5.732;2023-04-24T18:00:52;1.67;;;1.13;;
15669;SDS011;18524;45.190;5.732;2023-04-24T18:05:42;2.27;;;1.33;;
15669;SDS011;18524;45.190;5.732;2023-04-24T18:10:33;3.00;;;1.87;;
15669;SDS011;18524;45.190;5.732;2023-04-24T18:15:26;2.37;;;1.40;;
15669;SDS011;18524;45.190;5.732;2023-04-24T18:20:17;2.87;;;1.30;;
15669;SDS011;18524;45.190;5.732;2023-04-24T18:25:08;2.30;;;1.10;;
15669;SDS011;18524;45.190;5.732;2023-04-24T18:29:59;1.80;;;1.40;;
15669;SDS011;18524;45.190;5.732;2023-04-24T18:34:50;2.17;;;1.20;;
15669;SDS011;18524;45.190;5.732;2023-04-24T18:39:40;3.03;;;1.80;;
15669;SDS011;18524;45.190;5.732;2023-04-24T18:44:30;1.70;;;1.53;;
15669;SDS011;18524;45.190;5.732;2023-04-24T18:49:21;1.73;;;1.20;;
15669;SDS011;18524;45.190;5.732;2023-04-24T18:54:11;3.13;;;1.30;;
15669;SDS011;18524;45.190;5.732;2023-04-24T18:59:02;28.50;;;16.17;;
15669;SDS011;18524;45.190;5.732;2023-04-24T19:03:52;5.77;;;3.10;;
15669;SDS011;18524;45.190;5.732;2023-04-24T19:08:43;5.33;;;3.37;;
15669;SDS011;18524;45.190;5.732;2023-04-24T19:13:33;4.83;;;2.77;;
15669;SDS011;18524;45.190;5.732;2023-04-24T19:18:24;4.97;;;2.47;;
15669;SDS011;18524;45.190;5.732;2023-04-24T19:23:16;2.13;;;1.90;;
15669;SDS011;18524;45.190;5.732;2023-04-24T19:28:06;2.87;;;2.03;;
15669;SDS011;18524;45.190;5.732;2023-04-24T19:32:57;3.83;;;2.03;;
15669;SDS011;18524;45.190;5.732;2023-04-24T19:37:47;4.13;;;2.73;;
15669;SDS011;18524;45.190;5.732;2023-04-24T19:42:38;3.03;;;2.40;;
15669;SDS011;18524;45.190;5.732;2023-04-24T19:47:28;3.50;;;1.80;;
15669;SDS011;18524;45.190;5.732;2023-04-24T19:52:18;2.80;;;2.03;;
15669;SDS011;18524;45.190;5.732;2023-04-24T19:57:10;2.40;;;1.93;;
15669;SDS011;18524;45.190;5.732;2023-04-24T20:02:00;3.03;;;2.57;;
15669;SDS011;18524;45.190;5.732;2023-04-24T20:06:51;3.07;;;2.40;;
15669;SDS011;18524;45.190;5.732;2023-04-24T20:11:41;3.00;;;1.80;;
15669;SDS011;18524;45.190;5.732;2023-04-24T20:16:32;2.03;;;1.50;;
15669;SDS011;18524;45.190;5.732;2023-04-24T20:21:22;3.53;;;1.63;;
15669;SDS011;18524;45.190;5.732;2023-04-24T20:26:13;3.33;;;1.70;;
15669;SDS011;18524;45.190;5.732;2023-04-24T20:31:03;3.70;;;2.20;;
15669;SDS011;18524;45.190;5.732;2023-04-24T20:35:53;2.30;;;1.73;;
15669;SDS011;18524;45.190;5.732;2023-04-24T20:40:44;4.43;;;3.40;;
15669;SDS011;18524;45.190;5.732;2023-04-24T20:45:36;4.97;;;2.63;;
15669;SDS011;18524;45.190;5.732;2023-04-24T20:50:27;3.43;;;2.30;;
15669;SDS011;18524;45.190;5.732;2023-04-24T20:55:17;4.37;;;2.60;;
15669;SDS011;18524;45.190;5.732;2023-04-24T21:00:08;5.27;;;2.70;;
15669;SDS011;18524;45.190;5.732;2023-04-24T21:05:00;4.70;;;2.67;;
15669;SDS011;18524;45.190;5.732;2023-04-24T21:09:50;4.43;;;2.13;;
15669;SDS011;18524;45.190;5.732;2023-04-24T21:14:40;3.13;;;2.10;;
15669;SDS011;18524;45.190;5.732;2023-04-24T21:19:31;3.37;;;2.20;;
15669;SDS011;18524;45.190;5.732;2023-04-24T21:24:21;3.50;;;2.07;;
15669;SDS011;18524;45.190;5.732;2023-04-24T21:29:12;2.53;;;1.90;;
15669;SDS011;18524;45.190;5.732;2023-04-24T21:34:02;3.27;;;2.30;;
15669;SDS011;18524;45.190;5.732;2023-04-24T21:38:53;3.00;;;2.40;;
15669;SDS011;18524;45.190;5.732;2023-04-24T21:43:43;3.90;;;2.50;;
15669;SDS011;18524;45.190;5.732;2023-04-24T21:48:34;4.50;;;3.00;;
15669;SDS011;18524;45.190;5.732;2023-04-24T21:53:24;4.30;;;2.67;;
15669;SDS011;18524;45.190;5.732;2023-04-24T21:58:14;3.00;;;2.63;;
15669;SDS011;18524;45.190;5.732;2023-04-24T22:03:05;4.50;;;3.07;;
15669;SDS011;18524;45.190;5.732;2023-04-24T22:07:56;3.27;;;2.57;;
15669;SDS011;18524;45.190;5.732;2023-04-24T22:12:48;4.97;;;2.70;;
15669;SDS011;18524;45.190;5.732;2023-04-24T22:17:38;3.80;;;2.77;;
15669;SDS011;18524;45.190;5.732;2023-04-24T22:22:29;3.40;;;2.53;;
15669;SDS011;18524;45.190;5.732;2023-04-24T22:27:19;3.47;;;2.80;;
15669;SDS011;18524;45.190;5.732;2023-04-24T22:32:10;2.97;;;2.57;;
15669;SDS011;18524;45.190;5.732;2023-04-24T22:37:00;3.43;;;2.50;;
15669;SDS011;18524;45.190;5.732;2023-04-24T22:41:51;3.13;;;2.83;;
15669;SDS011;18524;45.190;5.732;2023-04-24T22:46:41;4.30;;;2.73;;
15669;SDS011;18524;45.190;5.732;2023-04-24T22:51:32;3.53;;;2.63;;
15669;SDS011;18524;45.190;5.732;2023-04-24T22:56:22;3.67;;;3.00;;
15669;SDS011;18524;45.190;5.732;2023-04-24T23:01:12;3.40;;;2.43;;
15669;SDS011;18524;45.190;5.732;2023-04-24T23:06:04;2.87;;;2.60;;
15669;SDS011;18524;45.190;5.732;2023-04-24T23:10:55;4.43;;;2.60;;
15669;SDS011;18524;45.190;5.732;2023-04-24T23:15:46;3.90;;;3.03;;
15669;SDS011;18524;45.190;5.732;2023-04-24T23:20:36;3.70;;;2.80;;
15669;SDS011;18524;45.190;5.732;2023-04-24T23:25:27;3.27;;;2.40;;
15669;SDS011;18524;45.190;5.732;2023-04-24T23:30:18;2.50;;;2.30;;
15669;SDS011;18524;45.190;5.732;2023-04-24T23:35:08;3.00;;;2.33;;
15669;SDS011;18524;45.190;5.732;2023-04-24T23:39:59;4.33;;;2.90;;
15669;SDS011;18524;45.190;5.732;2023-04-24T23:44:50;4.77;;;2.93;;
15669;SDS011;18524;45.190;5.732;2023-04-24T23:49:40;3.83;;;2.73;;
15669;SDS011;18524;45.190;5.732;2023-04-24T23:54:30;3.57;;;3.03;;
15669;SDS011;18524;45.190;5.732;2023-04-24T23:59:21;3.70;;;2.63;;
